Time;durP1;ratioP1;P1;durP2;ratioP2;P2;SDS_P1;SDS_P2;PMS_P1;PMS_P2;Temp;Humidity;BMP_temperature;BMP_pressure;BME280_temperature;BME280_humidity;BME280_pressure;Samples;Min_cycle;Max_cycle;Signal;HPM_P1;HPM_P2
2022/07/11 00:01:51;;;;;;;;;;;;;;;;;;5055588;28;20065;-24
2022/07/11 00:04:17;;;;;;;;;;;;;;;;;;5055789;28;19923;-23
2022/07/11 00:06:43;;;;;;;;;;;;;;;;;;5055535;28;19992;-25
2022/07/11 00:09:09;;;;;;;;;;;;;;;;;;5055496;28;19927;-25
2022/07/11 00:11:35;;;;;;;;;;;;;;;;;;5055471;28;19916;-24
2022/07/11 00:14:01;;;;;;;;;;;;;;;;;;5055279;28;19947;-25
2022/07/11 00:16:27;;;;;;;;;;;;;;;;;;5055420;28;19908;-25
2022/07/11 00:18:53;;;;;;;;;;;;;;;;;;5055321;28;20340;-25
2022/07/11 00:21:19;;;;;;;;;;;;;;;;;;5055186;28;19924;-23
2022/07/11 00:23:45;;;;;;;;;;;;;;;;;;5054995;28;19921;-24
2022/07/11 00:26:11;;;;;;;;;;;;;;;;;;5055281;28;19913;-23
2022/07/11 00:28:37;;;;;;;;;;;;;;;;;;5055559;28;19920;-23
2022/07/11 00:31:03;;;;;;;;;;;;;;;;;;5055466;28;19924;-26
2022/07/11 00:33:29;;;;;;;;;;;;;;;;;;5055417;28;19920;-24
2022/07/11 00:35:55;;;;;;;;;;;;;;;;;;5055151;28;19913;-24
2022/07/11 00:38:21;;;;;;;;;;;;;;;;;;5055161;28;20384;-24
2022/07/11 00:40:47;;;;;;;;;;;;;;;;;;5054929;28;20029;-25
2022/07/11 00:43:13;;;;;;;;;;;;;;;;;;5055009;28;19913;-23
2022/07/11 00:45:39;;;;;;;;;;;;;;;;;;5055339;28;19995;-23
2022/07/11 00:48:05;;;;;;;;;;;;;;;;;;5055258;28;19967;-26
2022/07/11 00:50:31;;;;;;;;;;;;;;;;;;5054984;28;19912;-24
2022/07/11 00:52:57;;;;;;;;;;;;;;;;;;5054880;28;20256;-25
2022/07/11 00:55:23;;;;;;;;;;;;;;;;;;5054965;28;19924;-24
2022/07/11 00:57:49;;;;;;;;;;;;;;;;;;5054991;28;19912;-24
2022/07/11 01:00:17;;;;;;;;;;;;;;;;;;5055127;28;20331;-23
2022/07/11 01:02:43;;;;;;;;;;;;;;;;;;5055691;28;19919;-24
2022/07/11 01:05:09;;;;;;;;;;;;;;;;;;5055176;28;19913;-23
2022/07/11 01:07:35;;;;;;;;;;;;;;;;;;5054858;28;19919;-27
2022/07/11 01:10:01;;;;;;;;;;;;;;;;;;5054828;28;19919;-25
2022/07/11 01:12:27;;;;;;;;;;;;;;;;;;5054768;28;19909;-25
2022/07/11 01:14:53;;;;;;;;;;;;;;;;;;5054801;28;20423;-29
2022/07/11 01:17:19;;;;;;;;;;;;;;;;;;5054778;28;20310;-24
2022/07/11 01:19:45;;;;;;;;;;;;;;;;;;5054978;28;19917;-24
2022/07/11 01:22:11;;;;;;;;;;;;;;;;;;5053595;28;19970;-26
2022/07/11 01:24:37;;;;;;;;;;;;;;;;;;5054548;28;19931;-26
2022/07/11 01:27:03;;;;;;;;;;;;;;;;;;5057175;28;19935;-23
2022/07/11 01:29:29;;;;;;;;;;;;;;;;;;5058479;28;20320;-25
2022/07/11 01:31:55;;;;;;;;;;;;;;;;;;5058717;28;20338;-23
2022/07/11 01:34:21;;;;;;;;;;;;;;;;;;5058362;28;19924;-24
2022/07/11 01:36:47;;;;;;;;;;;;;;;;;;5058311;28;19909;-24
2022/07/11 01:39:13;;;;;;;;;;;;;;;;;;5058372;28;19909;-26
2022/07/11 01:41:39;;;;;;;;;;;;;;;;;;5058502;28;19921;-24
2022/07/11 01:44:05;;;;;;;;;;;;;;;;;;5058207;28;19998;-26
2022/07/11 01:46:31;;;;;;;;;;;;;;;;;;5058516;28;19909;-24
2022/07/11 01:48:57;;;;;;;;;;;;;;;;;;5058155;28;19943;-24
2022/07/11 01:51:23;;;;;;;;;;;;;;;;;;5058070;28;20352;-28
2022/07/11 01:53:49;;;;;;;;;;;;;;;;;;5058265;28;20019;-27
2022/07/11 01:56:15;;;;;;;;;;;;;;;;;;5058296;28;19912;-25
2022/07/11 01:58:42;;;;;;;;;;;;;;;;;;5057972;28;19947;-23
2022/07/11 02:01:08;;;;;;;;;;;;;;;;;;5057784;28;20343;-26
2022/07/11 02:03:34;;;;;;;;;;;;;;;;;;5058080;28;20008;-28
2022/07/11 02:06:00;;;;;;;;;;;;;;;;;;5057812;28;19929;-28
2022/07/11 02:08:26;;;;;;;;;;;;;;;;;;5058059;28;19917;-27
2022/07/11 02:10:52;;;;;;;;;;;;;;;;;;5058040;28;20233;-25
2022/07/11 02:13:18;;;;;;;;;;;;;;;;;;5057675;28;19920;-25
2022/07/11 02:15:44;;;;;;;;;;;;;;;;;;5057610;28;19920;-25
2022/07/11 02:18:10;;;;;;;;;;;;;;;;;;5057618;28;20337;-29
2022/07/11 02:20:36;;;;;;;;;;;;;;;;;;5057478;28;19926;-27
2022/07/11 02:23:03;;;;;;;;;;;;;;;;;;5057260;28;19913;-26
2022/07/11 02:25:29;;;;;;;;;;;;;;;;;;5057769;28;20040;-24
2022/07/11 02:27:55;;;;;;;;;;;;;;;;;;5057691;28;19974;-26
2022/07/11 02:30:21;;;;;;;;;;;;;;;;;;5057353;28;19913;-24
2022/07/11 02:32:47;;;;;;;;;;;;;;;;;;5057436;28;19916;-23
2022/07/11 02:35:13;;;;;;;;;;;;;;;;;;5057249;28;20356;-24
2022/07/11 02:37:39;;;;;;;;;;;;;;;;;;5056992;28;19936;-23
2022/07/11 02:40:05;;;;;;;;;;;;;;;;;;5057170;28;19912;-23
2022/07/11 02:42:31;;;;;;;;;;;;;;;;;;5057205;28;19937;-25
2022/07/11 02:44:57;;;;;;;;;;;;;;;;;;5057075;28;20233;-25
2022/07/11 02:47:24;;;;;;;;;;;;;;;;;;5057030;28;19912;-25
2022/07/11 02:49:49;;;;;;;;;;;;;;;;;;5057035;28;20283;-24
2022/07/11 02:52:15;;;;;;;;;;;;;;;;;;5057166;28;19913;-25
2022/07/11 02:54:41;;;;;;;;;;;;;;;;;;5056916;28;19917;-26
2022/07/11 02:57:07;;;;;;;;;;;;;;;;;;5057175;28;20003;-25
2022/07/11 02:59:33;;;;;;;;;;;;;;;;;;5056813;28;19913;-28
2022/07/11 03:01:59;;;;;;;;;;;;;;;;;;5056886;28;19983;-26
2022/07/11 03:04:25;;;;;;;;;;;;;;;;;;5056743;28;19913;-24
2022/07/11 03:06:52;;;;;;;;;;;;;;;;;;5055737;28;20336;-25
2022/07/11 03:09:18;;;;;;;;;;;;;;;;;;5056616;28;19913;-27
2022/07/11 03:11:44;;;;;;;;;;;;;;;;;;5056863;28;19948;-25
2022/07/11 03:14:10;;;;;;;;;;;;;;;;;;5056514;28;20221;-26
2022/07/11 03:16:36;;;;;;;;;;;;;;;;;;5056438;28;19916;-27
2022/07/11 03:19:02;;;;;;;;;;;;;;;;;;5055476;28;19913;-25
2022/07/11 03:21:28;;;;;;;;;;;;;;;;;;5056589;28;19916;-25
2022/07/11 03:23:54;;;;;;;;;;;;;;;;;;5056561;28;19974;-24
2022/07/11 03:26:20;;;;;;;;;;;;;;;;;;5056593;28;19944;-26
2022/07/11 03:28:46;;;;;;;;;;;;;;;;;;5056256;28;19970;-24
2022/07/11 03:31:12;;;;;;;;;;;;;;;;;;5056243;28;19923;-24
2022/07/11 03:33:38;;;;;;;;;;;;;;;;;;5056353;28;19919;-25
2022/07/11 03:36:04;;;;;;;;;;;;;;;;;;5056080;28;20007;-24
2022/07/11 03:38:30;;;;;;;;;;;;;;;;;;5056390;28;19971;-25
2022/07/11 03:40:56;;;;;;;;;;;;;;;;;;5056123;28;19970;-24
2022/07/11 03:43:22;;;;;;;;;;;;;;;;;;5054931;28;20351;-24
2022/07/11 03:45:48;;;;;;;;;;;;;;;;;;5055866;28;20290;-26
2022/07/11 03:48:14;;;;;;;;;;;;;;;;;;5055603;28;19913;-28
2022/07/11 03:50:40;;;;;;;;;;;;;;;;;;5055637;28;20362;-30
2022/07/11 03:53:06;;;;;;;;;;;;;;;;;;5055702;28;19924;-26
2022/07/11 03:55:32;;;;;;;;;;;;;;;;;;5055688;28;19916;-25
2022/07/11 03:57:58;;;;;;;;;;;;;;;;;;5055841;28;19969;-24
2022/07/11 04:00:24;;;;;;;;;;;;;;;;;;5054505;28;20304;-27
2022/07/11 04:02:50;;;;;;;;;;;;;;;;;;5055480;28;20302;-25
2022/07/11 04:05:16;;;;;;;;;;;;;;;;;;5055734;28;19912;-27
2022/07/11 04:07:42;;;;;;;;;;;;;;;;;;5055753;28;19978;-25
2022/07/11 04:10:08;;;;;;;;;;;;;;;;;;5055234;28;19913;-26
2022/07/11 04:12:34;;;;;;;;;;;;;;;;;;5055525;28;20347;-28
2022/07/11 04:15:00;;;;;;;;;;;;;;;;;;5054258;28;19967;-26
2022/07/11 04:17:26;;;;;;;;;;;;;;;;;;5055211;28;19948;-25
2022/07/11 04:19:53;;;;;;;;;;;;;;;;;;5055461;28;19917;-29
2022/07/11 04:22:19;;;;;;;;;;;;;;;;;;5055003;28;19924;-29
2022/07/11 04:24:45;;;;;;;;;;;;;;;;;;5054887;28;19921;-26
2022/07/11 04:27:11;;;;;;;;;;;;;;;;;;5054918;28;20386;-26
2022/07/11 04:29:37;;;;;;;;;;;;;;;;;;5055259;28;19956;-29
2022/07/11 04:32:02;;;;;;;;;;;;;;;;;;5054951;28;19921;-27
2022/07/11 04:34:28;;;;;;;;;;;;;;;;;;5055006;28;19917;-24
2022/07/11 04:36:54;;;;;;;;;;;;;;;;;;5055047;28;19913;-27
2022/07/11 04:39:21;;;;;;;;;;;;;;;;;;5055265;28;20348;-29
2022/07/11 04:41:47;;;;;;;;;;;;;;;;;;5054862;28;20234;-28
2022/07/11 04:44:12;;;;;;;;;;;;;;;;;;5054953;28;20321;-28
2022/07/11 04:46:38;;;;;;;;;;;;;;;;;;5055008;28;19909;-26
2022/07/11 04:49:04;;;;;;;;;;;;;;;;;;5054885;28;19952;-33
2022/07/11 04:51:30;;;;;;;;;;;;;;;;;;5055148;28;19952;-26
2022/07/11 04:53:56;;;;;;;;;;;;;;;;;;5054777;28;20370;-27
2022/07/11 04:56:22;;;;;;;;;;;;;;;;;;5055056;28;19931;-25
2022/07/11 04:58:49;;;;;;;;;;;;;;;;;;5054730;28;20351;-28
2022/07/11 05:01:15;;;;;;;;;;;;;;;;;;5057616;28;19917;-27
2022/07/11 05:03:41;;;;;;;;;;;;;;;;;;5058983;28;19913;-27
2022/07/11 05:06:07;;;;;;;;;;;;;;;;;;5058868;28;19994;-25
2022/07/11 05:08:36;;;;;;;;;;;;;;;;;;5059114;28;20339;-30
2022/07/11 05:11:03;;;;;;;;;;;;;;;;;;5058752;28;19943;-28
2022/07/11 05:13:29;;;;;;;;;;;;;;;;;;5058525;28;20350;-28
2022/07/11 05:15:55;;;;;;;;;;;;;;;;;;5057645;28;19908;-31
2022/07/11 05:18:21;;;;;;;;;;;;;;;;;;5058621;28;19924;-26
2022/07/11 05:20:48;;;;;;;;;;;;;;;;;;5058448;28;19913;-26
2022/07/11 05:23:14;;;;;;;;;;;;;;;;;;5058590;28;20311;-23
2022/07/11 05:25:40;;;;;;;;;;;;;;;;;;5057538;28;19978;-24
2022/07/11 05:28:06;;;;;;;;;;;;;;;;;;5058444;28;19909;-27
2022/07/11 05:30:32;;;;;;;;;;;;;;;;;;5058723;28;19928;-28
2022/07/11 05:32:58;;;;;;;;;;;;;;;;;;5058579;28;19923;-27
2022/07/11 05:35:25;;;;;;;;;;;;;;;;;;5057314;28;19908;-31
2022/07/11 05:37:51;;;;;;;;;;;;;;;;;;5058509;28;19978;-23
2022/07/11 05:40:17;;;;;;;;;;;;;;;;;;5058125;28;19912;-25
2022/07/11 05:42:43;;;;;;;;;;;;;;;;;;5057118;28;19924;-26
2022/07/11 05:45:09;;;;;;;;;;;;;;;;;;5057205;28;20352;-25
2022/07/11 05:47:34;;;;;;;;;;;;;;;;;;5057094;28;19956;-26
2022/07/11 05:50:00;;;;;;;;;;;;;;;;;;5058048;28;19921;-25
2022/07/11 05:52:27;;;;;;;;;;;;;;;;;;5057964;28;19952;-29
2022/07/11 05:54:54;;;;;;;;;;;;;;;;;;5056776;28;19928;-25
2022/07/11 05:57:20;;;;;;;;;;;;;;;;;;5057885;28;19951;-30
2022/07/11 05:59:50;;;;;;;;;;;;;;;;;;5056721;28;19909;-26
2022/07/11 06:02:18;;;;;;;;;;;;;;;;;;5481974;23;20010;-28
2022/07/11 06:04:44;;;;;;;;;;;;;;;;;;5037547;28;20060;-29
2022/07/11 06:07:10;;;;;;;;;;;;;;;;;;5037627;28;19924;-29
2022/07/11 06:09:36;;;;;;;;;;;;;;;;;;5037661;28;19920;-29
2022/07/11 06:12:02;;;;;;;;;;;;;;;;;;5035969;28;19913;-28
2022/07/11 06:14:29;;;;;;;;;;;;;;;;;;5037537;28;19917;-29
2022/07/11 06:16:55;;;;;;;;;;;;;;;;;;5037601;28;19913;-29
2022/07/11 06:19:21;;;;;;;;;;;;;;;;;;5037522;28;20031;-29
2022/07/11 06:21:46;;;;;;;;;;;;;;;;;;5037578;28;20402;-29
2022/07/11 06:24:12;;;;;;;;;;;;;;;;;;5037406;28;20007;-29
2022/07/11 06:26:38;;;;;;;;;;;;;;;;;;5037381;28;19916;-29
2022/07/11 06:29:04;;;;;;;;;;;;;;;;;;5037372;28;19913;-29
2022/07/11 06:31:30;;;;;;;;;;;;;;;;;;5037464;28;20367;-29
2022/07/11 06:33:57;;;;;;;;;;;;;;;;;;5037056;28;19909;-29
2022/07/11 06:36:23;;;;;;;;;;;;;;;;;;5037118;28;19909;-29
2022/07/11 06:38:49;;;;;;;;;;;;;;;;;;5037006;28;20252;-29
2022/07/11 06:41:15;;;;;;;;;;;;;;;;;;5036969;28;19917;-29
2022/07/11 06:43:41;;;;;;;;;;;;;;;;;;5036823;28;20370;-29
2022/07/11 06:46:07;;;;;;;;;;;;;;;;;;5035873;28;19909;-29
2022/07/11 06:48:33;;;;;;;;;;;;;;;;;;5035837;28;19924;-29
2022/07/11 06:50:59;;;;;;;;;;;;;;;;;;5036790;28;19913;-29
2022/07/11 06:53:25;;;;;;;;;;;;;;;;;;5036856;28;20358;-28
2022/07/11 06:55:51;;;;;;;;;;;;;;;;;;5036685;28;20275;-29
2022/07/11 06:58:32;;;;;;;;;;;;;;;;;;5035606;28;19910;-29
2022/07/11 07:00:58;;;;;;;;;;;;;;;;;;5036871;28;19927;-29
2022/07/11 07:03:24;;;;;;;;;;;;;;;;;;5035402;28;20000;-29
2022/07/11 07:05:52;;;;;;;;;;;;;;;;;;5035693;28;19920;-29
2022/07/11 07:08:18;;;;;;;;;;;;;;;;;;5036547;28;19913;-29
2022/07/11 07:10:44;;;;;;;;;;;;;;;;;;5036482;28;19920;-29
2022/07/11 07:13:11;;;;;;;;;;;;;;;;;;5036347;28;20090;-29
2022/07/11 07:15:37;;;;;;;;;;;;;;;;;;5036617;28;20431;-29
2022/07/11 07:18:03;;;;;;;;;;;;;;;;;;5036375;28;19971;-29
2022/07/11 07:20:29;;;;;;;;;;;;;;;;;;5036106;28;19967;-29
2022/07/11 07:22:55;;;;;;;;;;;;;;;;;;5035074;28;19909;-28
2022/07/11 07:25:21;;;;;;;;;;;;;;;;;;5035935;28;19917;-29
2022/07/11 07:27:47;;;;;;;;;;;;;;;;;;5036039;28;19971;-29
2022/07/11 07:30:13;;;;;;;;;;;;;;;;;;5035985;28;19913;-29
2022/07/11 07:32:39;;;;;;;;;;;;;;;;;;5036180;28;20347;-29
2022/07/11 07:35:05;;;;;;;;;;;;;;;;;;5035946;28;19913;-29
2022/07/11 07:37:31;;;;;;;;;;;;;;;;;;5036031;28;19920;-29
2022/07/11 07:39:57;;;;;;;;;;;;;;;;;;5036142;28;20225;-28
2022/07/11 07:42:23;;;;;;;;;;;;;;;;;;5035638;28;19975;-28
2022/07/11 07:44:49;;;;;;;;;;;;;;;;;;5036149;28;19909;-29
2022/07/11 07:47:15;;;;;;;;;;;;;;;;;;5034759;28;20059;-30
2022/07/11 07:49:41;;;;;;;;;;;;;;;;;;5034704;28;19943;-28
2022/07/11 07:52:07;;;;;;;;;;;;;;;;;;5036052;28;19949;-29
2022/07/11 07:54:33;;;;;;;;;;;;;;;;;;5035590;28;20014;-29
2022/07/11 07:56:59;;;;;;;;;;;;;;;;;;5035640;28;19920;-29
2022/07/11 07:59:25;;;;;;;;;;;;;;;;;;5035727;28;19924;-29
2022/07/11 08:01:51;;;;;;;;;;;;;;;;;;5035624;28;19925;-29
2022/07/11 08:04:17;;;;;;;;;;;;;;;;;;5035362;28;19924;-32
2022/07/11 08:06:43;;;;;;;;;;;;;;;;;;5035389;28;19948;-29
2022/07/11 08:09:09;;;;;;;;;;;;;;;;;;5035849;28;19909;-29
2022/07/11 08:11:35;;;;;;;;;;;;;;;;;;5035200;28;19909;-29
2022/07/11 08:14:02;;;;;;;;;;;;;;;;;;5035108;28;19917;-30
2022/07/11 08:16:28;;;;;;;;;;;;;;;;;;5034210;28;19915;-29
2022/07/11 08:18:55;;;;;;;;;;;;;;;;;;5035186;28;19917;-29
2022/07/11 08:21:21;;;;;;;;;;;;;;;;;;5035058;28;19917;-29
2022/07/11 08:23:47;;;;;;;;;;;;;;;;;;5035082;28;19924;-29
2022/07/11 08:26:14;;;;;;;;;;;;;;;;;;5034076;28;20478;-29
2022/07/11 08:28:40;;;;;;;;;;;;;;;;;;5035343;28;20261;-28
2022/07/11 08:31:06;;;;;;;;;;;;;;;;;;5035316;28;20332;-29
2022/07/11 08:33:32;;;;;;;;;;;;;;;;;;5034973;28;19913;-29
2022/07/11 08:35:58;;;;;;;;;;;;;;;;;;5034778;28;19909;-29
2022/07/11 08:38:23;;;;;;;;;;;;;;;;;;5034036;28;19939;-29
2022/07/11 08:40:50;;;;;;;;;;;;;;;;;;5033879;28;20004;-29
2022/07/11 08:43:16;;;;;;;;;;;;;;;;;;5034951;28;19913;-28
2022/07/11 08:45:42;;;;;;;;;;;;;;;;;;5034908;28;19913;-29
2022/07/11 08:48:12;;;;;;;;;;;;;;;;;;5034888;28;19979;-29
2022/07/11 08:50:38;;;;;;;;;;;;;;;;;;5035123;28;19946;-29
2022/07/11 08:53:04;;;;;;;;;;;;;;;;;;5034784;28;20020;-29
2022/07/11 08:55:30;;;;;;;;;;;;;;;;;;5033825;28;19963;-29
2022/07/11 08:57:56;;;;;;;;;;;;;;;;;;5034872;28;19913;-29
2022/07/11 09:00:22;;;;;;;;;;;;;;;;;;5034761;28;19913;-32
2022/07/11 09:02:48;;;;;;;;;;;;;;;;;;5034588;28;19975;-28
2022/07/11 09:05:14;;;;;;;;;;;;;;;;;;5033752;28;20268;-28
2022/07/11 09:07:40;;;;;;;;;;;;;;;;;;5034671;28;20325;-29
2022/07/11 09:10:06;;;;;;;;;;;;;;;;;;5034572;28;19917;-28
2022/07/11 09:12:32;;;;;;;;;;;;;;;;;;5034616;28;19963;-28
2022/07/11 09:14:59;;;;;;;;;;;;;;;;;;5034860;28;19979;-29
2022/07/11 09:17:28;;;;;;;;;;;;;;;;;;5034513;28;19917;-29
2022/07/11 09:19:54;;;;;;;;;;;;;;;;;;5034921;28;20293;-29
2022/07/11 09:25:21;;;;;;;;;;;;;;;;;;5034545;28;20287;-30
2022/07/11 09:27:47;;;;;;;;;;;;;;;;;;5034351;28;19913;-29
2022/07/11 09:30:13;;;;;;;;;;;;;;;;;;5034375;28;19912;-29
2022/07/11 09:32:39;;;;;;;;;;;;;;;;;;5034573;28;19913;-29
2022/07/11 09:35:05;;;;;;;;;;;;;;;;;;5034301;28;20411;-29
2022/07/11 09:37:31;;;;;;;;;;;;;;;;;;5034380;28;19913;-29
2022/07/11 09:39:57;;;;;;;;;;;;;;;;;;5034437;28;19913;-29
2022/07/11 09:42:23;;;;;;;;;;;;;;;;;;5034458;28;19920;-29
2022/07/11 09:44:50;;;;;;;;;;;;;;;;;;5034298;28;20355;-29
2022/07/11 09:47:16;;;;;;;;;;;;;;;;;;5035600;28;19909;-29
2022/07/11 09:49:42;;;;;;;;;;;;;;;;;;5037995;28;19936;-29
2022/07/11 09:52:08;;;;;;;;;;;;;;;;;;5037941;28;19917;-28
2022/07/11 09:54:34;;;;;;;;;;;;;;;;;;5038260;28;19913;-29
2022/07/11 09:57:00;;;;;;;;;;;;;;;;;;5038293;28;19913;-29
2022/07/11 09:59:26;;;;;;;;;;;;;;;;;;5038169;28;19913;-29
2022/07/11 10:01:52;;;;;;;;;;;;;;;;;;5037773;28;20255;-29
2022/07/11 10:04:18;;;;;;;;;;;;;;;;;;5037694;28;19917;-29
2022/07/11 10:06:44;;;;;;;;;;;;;;;;;;5037710;28;20343;-29
2022/07/11 10:09:10;;;;;;;;;;;;;;;;;;5037872;28;20047;-29
2022/07/11 10:11:36;;;;;;;;;;;;;;;;;;5037606;28;19948;-29
2022/07/11 10:14:02;;;;;;;;;;;;;;;;;;5037490;28;19924;-29
2022/07/11 10:16:28;;;;;;;;;;;;;;;;;;5037288;28;19958;-29
2022/07/11 10:18:54;;;;;;;;;;;;;;;;;;5036218;28;19924;-29
2022/07/11 10:21:20;;;;;;;;;;;;;;;;;;5037079;28;20020;-29
2022/07/11 10:23:47;;;;;;;;;;;;;;;;;;5037241;28;20016;-32
2022/07/11 10:26:13;;;;;;;;;;;;;;;;;;5037594;28;19921;-29
2022/07/11 10:28:39;;;;;;;;;;;;;;;;;;5037267;28;20399;-29
2022/07/11 10:31:06;;;;;;;;;;;;;;;;;;5037246;28;19932;-29
2022/07/11 10:33:31;;;;;;;;;;;;;;;;;;5037220;28;19917;-29
2022/07/11 10:35:58;;;;;;;;;;;;;;;;;;5037231;28;20319;-29
2022/07/11 10:38:24;;;;;;;;;;;;;;;;;;5037067;28;19921;-29
2022/07/11 10:40:50;;;;;;;;;;;;;;;;;;5036900;28;19921;-29
2022/07/11 10:43:16;;;;;;;;;;;;;;;;;;5037039;28;19916;-28
2022/07/11 10:45:42;;;;;;;;;;;;;;;;;;5036009;28;19913;-29
2022/07/11 10:48:08;;;;;;;;;;;;;;;;;;5037179;28;20236;-29
2022/07/11 10:50:35;;;;;;;;;;;;;;;;;;5036884;28;20251;-29
2022/07/11 10:53:01;;;;;;;;;;;;;;;;;;5036714;28;19924;-29
2022/07/11 10:55:28;;;;;;;;;;;;;;;;;;5036682;28;19913;-29
2022/07/11 10:57:54;;;;;;;;;;;;;;;;;;5036756;28;19913;-29
2022/07/11 11:00:20;;;;;;;;;;;;;;;;;;5036597;28;20332;-29
2022/07/11 11:02:46;;;;;;;;;;;;;;;;;;5036427;28;19917;-29
2022/07/11 11:05:12;;;;;;;;;;;;;;;;;;5036617;28;20288;-29
2022/07/11 11:07:38;;;;;;;;;;;;;;;;;;5036483;28;19913;-29
2022/07/11 11:10:04;;;;;;;;;;;;;;;;;;5036517;28;19909;-29
2022/07/11 11:12:30;;;;;;;;;;;;;;;;;;5036626;28;19917;-29
2022/07/11 11:14:56;;;;;;;;;;;;;;;;;;5036367;28;19963;-29
2022/07/11 11:17:22;;;;;;;;;;;;;;;;;;5036269;28;19974;-28
2022/07/11 11:19:48;;;;;;;;;;;;;;;;;;5036292;28;19909;-29
2022/07/11 11:22:14;;;;;;;;;;;;;;;;;;5036376;28;19917;-29
2022/07/11 11:24:40;;;;;;;;;;;;;;;;;;5036183;28;20012;-29
2022/07/11 11:27:07;;;;;;;;;;;;;;;;;;5035126;28;20268;-28
2022/07/11 11:29:32;;;;;;;;;;;;;;;;;;5036057;28;19920;-29
2022/07/11 11:31:59;;;;;;;;;;;;;;;;;;5035824;28;20287;-29
2022/07/11 11:34:25;;;;;;;;;;;;;;;;;;5035910;28;19955;-29
2022/07/11 11:36:51;;;;;;;;;;;;;;;;;;5035807;28;20352;-29
2022/07/11 11:39:17;;;;;;;;;;;;;;;;;;5036027;28;19913;-29
2022/07/11 11:41:43;;;;;;;;;;;;;;;;;;5036559;28;19913;-29
2022/07/11 11:44:09;;;;;;;;;;;;;;;;;;5036051;28;19913;-29
2022/07/11 11:46:35;;;;;;;;;;;;;;;;;;5035778;28;20004;-29
2022/07/11 11:49:01;;;;;;;;;;;;;;;;;;5036088;28;20319;-29
2022/07/11 11:51:27;;;;;;;;;;;;;;;;;;5034619;28;19905;-29
2022/07/11 11:53:53;;;;;;;;;;;;;;;;;;5034553;28;19924;-29
2022/07/11 11:56:21;;;;;;;;;;;;;;;;;;5035603;28;19905;-29
2022/07/11 11:58:47;;;;;;;;;;;;;;;;;;5034586;28;19913;-29
2022/07/11 12:01:13;;;;;;;;;;;;;;;;;;5035714;28;19919;-28
2022/07/11 12:03:39;;;;;;;;;;;;;;;;;;5035362;28;19917;-29
2022/07/11 12:06:05;;;;;;;;;;;;;;;;;;5034561;28;19924;-28
2022/07/11 12:08:31;;;;;;;;;;;;;;;;;;5034636;28;19913;-40
2022/07/11 12:10:57;;;;;;;;;;;;;;;;;;5034896;28;19917;-29
2022/07/11 12:13:23;;;;;;;;;;;;;;;;;;5035342;28;19913;-29
2022/07/11 12:18:35;;;;;;;;;;;;;;;;;;5004707;28;20205;-29
2022/07/11 12:21:01;;;;;;;;;;;;;;;;;;5034145;28;19932;-28
2022/07/11 12:23:27;;;;;;;;;;;;;;;;;;5035100;28;19909;-29
2022/07/11 12:25:53;;;;;;;;;;;;;;;;;;5034222;28;19909;-29
2022/07/11 12:28:19;;;;;;;;;;;;;;;;;;5035141;28;19948;-29
2022/07/11 12:30:45;;;;;;;;;;;;;;;;;;5035376;28;19909;-29
2022/07/11 12:33:11;;;;;;;;;;;;;;;;;;5034039;28;19921;-28
2022/07/11 12:35:38;;;;;;;;;;;;;;;;;;5035067;28;19975;-29
2022/07/11 12:38:04;;;;;;;;;;;;;;;;;;5034966;28;19913;-28
2022/07/11 12:40:30;;;;;;;;;;;;;;;;;;5035218;28;20059;-28
2022/07/11 12:42:56;;;;;;;;;;;;;;;;;;5034950;28;20303;-29
2022/07/11 12:45:22;;;;;;;;;;;;;;;;;;5033953;28;19920;-28
2022/07/11 12:47:48;;;;;;;;;;;;;;;;;;5034832;28;19913;-28
2022/07/11 12:50:14;;;;;;;;;;;;;;;;;;5035007;28;19925;-28
2022/07/11 12:52:40;;;;;;;;;;;;;;;;;;5034602;28;19948;-28
2022/07/11 12:55:07;;;;;;;;;;;;;;;;;;5033700;28;20008;-28
2022/07/11 12:57:33;;;;;;;;;;;;;;;;;;5033602;28;20335;-28
2022/07/11 12:59:59;;;;;;;;;;;;;;;;;;5033668;28;19913;-28
2022/07/11 13:02:26;;;;;;;;;;;;;;;;;;5034413;28;19921;-28
2022/07/11 13:04:52;;;;;;;;;;;;;;;;;;5034685;28;19936;-28
2022/07/11 13:10:06;;;;;;;;;;;;;;;;;;5035014;28;19920;-28
2022/07/11 13:12:32;;;;;;;;;;;;;;;;;;5034606;28;19935;-28
2022/07/11 13:15:11;;;;;;;;;;;;;;;;;;5034611;28;19913;-28
2022/07/11 13:17:38;;;;;;;;;;;;;;;;;;5034314;28;19909;-29
2022/07/11 13:20:04;;;;;;;;;;;;;;;;;;5033564;28;19944;-29
2022/07/11 13:22:30;;;;;;;;;;;;;;;;;;5035655;28;19971;-28
2022/07/11 13:24:56;;;;;;;;;;;;;;;;;;5038311;28;19913;-28
2022/07/11 13:27:22;;;;;;;;;;;;;;;;;;5038266;28;19920;-28
2022/07/11 13:29:48;;;;;;;;;;;;;;;;;;5037241;28;19909;-28
2022/07/11 13:32:14;;;;;;;;;;;;;;;;;;5037052;28;19909;-28
2022/07/11 13:34:40;;;;;;;;;;;;;;;;;;5038249;28;20275;-28
2022/07/11 13:37:06;;;;;;;;;;;;;;;;;;5038408;28;19913;-27
2022/07/11 13:39:32;;;;;;;;;;;;;;;;;;5037075;28;20059;-27
2022/07/11 13:41:58;;;;;;;;;;;;;;;;;;5038048;28;20007;-29
2022/07/11 13:44:24;;;;;;;;;;;;;;;;;;5038074;28;20314;-28
2022/07/11 13:46:50;;;;;;;;;;;;;;;;;;5038240;28;20025;-29
2022/07/11 13:49:16;;;;;;;;;;;;;;;;;;5038059;28;20321;-29
2022/07/11 13:51:42;;;;;;;;;;;;;;;;;;5037782;28;19909;-29
2022/07/11 13:54:08;;;;;;;;;;;;;;;;;;5037841;28;20359;-28
2022/07/11 13:56:34;;;;;;;;;;;;;;;;;;5037773;28;19967;-30
2022/07/11 13:59:00;;;;;;;;;;;;;;;;;;5036813;28;19913;-30
2022/07/11 14:01:26;;;;;;;;;;;;;;;;;;5036716;28;19917;-30
2022/07/11 14:03:52;;;;;;;;;;;;;;;;;;5037339;28;19975;-30
2022/07/11 14:06:18;;;;;;;;;;;;;;;;;;5037639;28;19909;-30
2022/07/11 14:08:44;;;;;;;;;;;;;;;;;;5037526;28;19924;-30
2022/07/11 14:11:10;;;;;;;;;;;;;;;;;;5037547;28;20078;-30
2022/07/11 14:13:38;;;;;;;;;;;;;;;;;;5036661;28;20214;-30
2022/07/11 14:16:06;;;;;;;;;;;;;;;;;;5037525;28;19923;-30
2022/07/11 14:18:32;;;;;;;;;;;;;;;;;;5037475;28;19928;-30
2022/07/11 14:20:58;;;;;;;;;;;;;;;;;;5037256;28;19921;-29
2022/07/11 14:23:27;;;;;;;;;;;;;;;;;;5037392;28;19919;-30
2022/07/11 14:25:53;;;;;;;;;;;;;;;;;;5037244;28;19914;-29
2022/07/11 14:28:19;;;;;;;;;;;;;;;;;;5036264;28;20260;-30
2022/07/11 14:30:45;;;;;;;;;;;;;;;;;;5037128;28;19924;-30
2022/07/11 14:33:11;;;;;;;;;;;;;;;;;;5035630;28;19917;-30
2022/07/11 14:35:37;;;;;;;;;;;;;;;;;;5037208;28;20071;-30
2022/07/11 14:38:03;;;;;;;;;;;;;;;;;;5036210;28;20363;-30
2022/07/11 14:40:29;;;;;;;;;;;;;;;;;;5036977;28;19928;-30
2022/07/11 14:42:55;;;;;;;;;;;;;;;;;;5036817;28;20367;-30
2022/07/11 14:45:22;;;;;;;;;;;;;;;;;;5036901;28;19928;-30
2022/07/11 14:47:48;;;;;;;;;;;;;;;;;;5036859;28;20359;-30
2022/07/11 14:50:14;;;;;;;;;;;;;;;;;;5036873;28;19920;-30
2022/07/11 14:52:40;;;;;;;;;;;;;;;;;;5035837;28;19917;-30
2022/07/11 14:55:06;;;;;;;;;;;;;;;;;;5037078;28;19909;-30
2022/07/11 14:57:32;;;;;;;;;;;;;;;;;;5036670;28;19919;-30
2022/07/11 14:59:58;;;;;;;;;;;;;;;;;;5035696;28;20319;-30
2022/07/11 15:05:09;;;;;;;;;;;;;;;;;;5036799;28;20314;-29
2022/07/11 15:13:04;;;;;;;;;;;;;;;;;;5036428;28;19963;-30
2022/07/11 15:15:30;;;;;;;;;;;;;;;;;;5036320;28;20337;-30
2022/07/11 15:17:56;;;;;;;;;;;;;;;;;;5035313;28;19924;-29
2022/07/11 15:20:22;;;;;;;;;;;;;;;;;;5036249;28;19909;-30
2022/07/11 15:22:48;;;;;;;;;;;;;;;;;;5036196;28;19999;-30
2022/07/11 15:25:15;;;;;;;;;;;;;;;;;;5036304;28;20048;-30
2022/07/11 15:27:41;;;;;;;;;;;;;;;;;;5036231;28;19917;-30
2022/07/11 15:30:07;;;;;;;;;;;;;;;;;;5036489;28;20000;-30
2022/07/11 15:32:33;;;;;;;;;;;;;;;;;;5036100;28;19971;-29
2022/07/11 15:34:59;;;;;;;;;;;;;;;;;;5036100;28;19971;-30
2022/07/11 15:37:25;;;;;;;;;;;;;;;;;;5036024;28;19913;-30
2022/07/11 15:39:51;;;;;;;;;;;;;;;;;;5036300;28;19909;-30
2022/07/11 15:42:17;;;;;;;;;;;;;;;;;;5035744;28;20011;-29
2022/07/11 15:44:43;;;;;;;;;;;;;;;;;;5035081;28;20355;-30
2022/07/11 15:47:09;;;;;;;;;;;;;;;;;;5035771;28;19913;-30
2022/07/11 15:49:35;;;;;;;;;;;;;;;;;;5035629;28;19940;-30
2022/07/11 15:52:01;;;;;;;;;;;;;;;;;;5034746;28;20476;-30
2022/07/11 15:54:27;;;;;;;;;;;;;;;;;;5035644;28;19913;-30
2022/07/11 15:56:53;;;;;;;;;;;;;;;;;;5035618;28;19909;-30
2022/07/11 15:59:20;;;;;;;;;;;;;;;;;;5034807;28;20413;-30
2022/07/11 16:01:46;;;;;;;;;;;;;;;;;;5034239;28;20251;-30
2022/07/11 16:04:12;;;;;;;;;;;;;;;;;;5035444;28;20351;-30
2022/07/11 16:06:38;;;;;;;;;;;;;;;;;;5035722;28;19905;-30
2022/07/11 16:09:04;;;;;;;;;;;;;;;;;;5035497;28;19959;-30
2022/07/11 16:11:30;;;;;;;;;;;;;;;;;;5035673;28;19916;-30
2022/07/11 16:13:56;;;;;;;;;;;;;;;;;;5035470;28;19909;-30
2022/07/11 16:16:22;;;;;;;;;;;;;;;;;;5035246;28;19909;-30
2022/07/11 16:18:48;;;;;;;;;;;;;;;;;;5035503;28;19975;-30
2022/07/11 16:21:14;;;;;;;;;;;;;;;;;;5034237;28;19921;-30
2022/07/11 16:23:40;;;;;;;;;;;;;;;;;;5035439;28;20264;-30
2022/07/11 16:26:06;;;;;;;;;;;;;;;;;;5035187;28;19916;-30
2022/07/11 16:28:32;;;;;;;;;;;;;;;;;;5035135;28;20367;-30
2022/07/11 16:30:58;;;;;;;;;;;;;;;;;;5035408;28;19912;-30
2022/07/11 16:33:24;;;;;;;;;;;;;;;;;;5035037;28;20293;-30
2022/07/11 16:35:50;;;;;;;;;;;;;;;;;;5035091;28;19924;-30
2022/07/11 16:38:16;;;;;;;;;;;;;;;;;;5034258;28;19963;-29
2022/07/11 16:43:28;;;;;;;;;;;;;;;;;;5035300;28;19924;-30
2022/07/11 16:45:54;;;;;;;;;;;;;;;;;;5034977;28;19913;-30
2022/07/11 16:48:20;;;;;;;;;;;;;;;;;;5034933;28;19920;-30
2022/07/11 16:50:46;;;;;;;;;;;;;;;;;;5035242;28;19919;-30
2022/07/11 16:53:12;;;;;;;;;;;;;;;;;;5034893;28;20014;-30
2022/07/11 16:55:38;;;;;;;;;;;;;;;;;;5035432;28;19909;-29
2022/07/11 16:58:04;;;;;;;;;;;;;;;;;;5039319;28;19924;-30